createdAt,value
2023-04-16T00:02:02.861Z,16.03
2023-04-16T00:04:43.879Z,11.67
2023-04-16T00:07:17.804Z,11.37
2023-04-16T00:09:46.611Z,14.97
2023-04-16T00:12:13.878Z,15.13
2023-04-16T00:14:48.796Z,15.00
2023-04-16T00:17:22.873Z,17.07
2023-04-16T00:19:57.797Z,13.50
2023-04-16T00:22:31.769Z,13.97
2023-04-16T00:25:05.805Z,14.40
2023-04-16T00:27:32.904Z,14.57
2023-04-16T00:30:06.819Z,12.50
2023-04-16T00:32:40.797Z,13.20
2023-04-16T00:35:14.755Z,12.67
2023-04-16T00:37:48.806Z,12.67
2023-04-16T00:40:15.884Z,10.17
2023-04-16T00:42:49.795Z,10.73
2023-04-16T00:45:23.756Z,11.47
2023-04-16T00:47:50.922Z,14.17
2023-04-16T00:50:26.751Z,11.50
2023-04-16T00:53:00.797Z,10.90
2023-04-16T00:55:28.064Z,9.10
2023-04-16T00:58:01.825Z,7.60
2023-04-16T01:00:29.581Z,6.97
2023-04-16T01:03:03.933Z,5.33
2023-04-16T01:05:37.635Z,6.37
2023-04-16T01:08:11.841Z,5.83
2023-04-16T01:10:38.814Z,7.13
2023-04-16T01:13:12.851Z,6.17
2023-04-16T01:15:42.183Z,7.17
2023-04-16T01:18:27.827Z,6.20
2023-04-16T01:20:54.856Z,5.83
2023-04-16T01:23:28.796Z,5.63
2023-04-16T01:26:02.890Z,5.57
2023-04-16T01:28:37.814Z,4.80
2023-04-16T01:31:11.816Z,5.37
2023-04-16T01:33:45.847Z,4.67
2023-04-16T01:36:19.777Z,3.73
2023-04-16T01:38:47.297Z,4.67
2023-04-16T01:41:20.842Z,5.50
2023-04-16T01:43:54.801Z,4.07
2023-04-16T01:46:32.330Z,4.83
2023-04-16T01:49:05.826Z,3.60
2023-04-16T01:51:33.423Z,3.73
2023-04-16T01:54:07.862Z,2.97
2023-04-16T01:56:41.815Z,3.43
2023-04-16T01:59:10.436Z,4.60
2023-04-16T02:01:45.986Z,4.93
2023-04-16T02:04:26.778Z,6.17
2023-04-16T02:07:00.567Z,6.87
2023-04-16T02:09:34.801Z,6.10
2023-04-16T02:12:03.433Z,9.13
2023-04-16T02:14:32.212Z,9.27
2023-04-16T02:17:07.832Z,7.00
2023-04-16T02:19:35.579Z,7.63
2023-04-16T02:22:09.851Z,9.13
2023-04-16T02:24:38.097Z,8.33
2023-04-16T02:27:11.846Z,9.20
2023-04-16T02:29:38.839Z,8.27
2023-04-16T02:32:12.908Z,11.47
2023-04-16T02:34:46.797Z,10.73
2023-04-16T02:37:21.786Z,10.27
2023-04-16T02:39:56.826Z,11.70
2023-04-16T02:42:25.085Z,10.07
2023-04-16T02:44:58.814Z,10.00
2023-04-16T02:47:31.810Z,13.80
2023-04-16T02:49:58.890Z,12.83
2023-04-16T02:52:32.844Z,14.13
2023-04-16T02:55:00.578Z,15.10
2023-04-16T02:57:33.851Z,18.97
2023-04-16T03:00:01.202Z,16.20
2023-04-16T03:02:34.829Z,19.10
2023-04-16T03:05:09.812Z,20.90
2023-04-16T03:07:39.262Z,18.17
2023-04-16T03:10:14.841Z,14.83
2023-04-16T03:12:48.798Z,18.13
2023-04-16T03:15:22.817Z,17.17
2023-04-16T03:17:50.437Z,16.77
2023-04-16T03:20:23.851Z,15.30
2023-04-16T03:22:52.419Z,15.87
2023-04-16T03:25:26.856Z,18.30
2023-04-16T03:28:00.878Z,19.00
2023-04-16T03:30:34.843Z,18.73
2023-04-16T03:33:01.919Z,19.80
2023-04-16T03:35:35.901Z,15.90
2023-04-16T03:38:02.931Z,13.47
2023-04-16T03:40:36.862Z,14.73
2023-04-16T03:43:03.956Z,17.17
2023-04-16T03:45:37.827Z,15.57
2023-04-16T03:48:11.817Z,13.40
2023-04-16T03:50:45.851Z,14.53
2023-04-16T03:53:12.965Z,11.67
2023-04-16T03:55:47.875Z,13.83
2023-04-16T03:58:15.262Z,13.37
2023-04-16T04:00:49.867Z,12.57
2023-04-16T04:03:25.060Z,12.63
2023-04-16T04:05:58.795Z,14.80
2023-04-16T04:08:32.861Z,14.03
2023-04-16T04:11:06.832Z,18.97
2023-04-16T04:13:40.844Z,16.53
2023-04-16T04:16:14.916Z,12.90
2023-04-16T04:18:43.318Z,16.33
2023-04-16T04:21:17.827Z,15.63
2023-04-16T04:23:51.838Z,14.60
2023-04-16T04:26:25.865Z,18.07
2023-04-16T04:28:53.234Z,23.53
2023-04-16T04:31:26.883Z,22.77
2023-04-16T04:33:54.071Z,18.63
2023-04-16T04:36:27.834Z,157.27
2023-04-16T04:39:01.835Z,282.67
2023-04-16T04:41:29.031Z,226.20
2023-04-16T04:44:02.854Z,239.67
2023-04-16T04:46:36.852Z,342.60
2023-04-16T04:49:11.121Z,72.40
2023-04-16T04:51:44.859Z,111.83
2023-04-16T04:54:18.902Z,111.97
2023-04-16T04:56:52.803Z,122.27
2023-04-16T04:59:27.871Z,52.53
2023-04-16T05:02:01.835Z,64.43
2023-04-16T05:04:43.893Z,42.83
2023-04-16T05:07:17.483Z,96.03
2023-04-16T05:09:50.858Z,138.83
2023-04-16T05:12:24.879Z,64.40
2023-04-16T05:14:58.900Z,49.73
2023-04-16T05:17:32.881Z,28.80
2023-04-16T05:20:00.913Z,67.03
2023-04-16T05:22:42.847Z,82.77
2023-04-16T05:25:17.607Z,167.80
2023-04-16T05:27:50.885Z,30.97
2023-04-16T05:30:24.829Z,72.50
2023-04-16T05:32:58.870Z,33.93
2023-04-16T05:35:32.878Z,60.70
2023-04-16T05:38:06.908Z,91.37
2023-04-16T05:40:40.867Z,113.97
2023-04-16T05:43:14.891Z,98.63
2023-04-16T05:45:48.893Z,81.37
2023-04-16T05:48:22.905Z,112.53
2023-04-16T05:50:56.879Z,90.07
2023-04-16T05:53:30.975Z,206.07
2023-04-16T05:55:58.164Z,454.03
2023-04-16T05:58:31.874Z,321.83
2023-04-16T06:01:05.898Z,375.53
2023-04-16T06:03:40.013Z,812.43
2023-04-16T06:06:19.900Z,597.27
2023-04-16T06:08:47.085Z,566.70
2023-04-16T06:11:20.844Z,689.27
2023-04-16T06:13:54.899Z,827.07
2023-04-16T06:16:22.202Z,784.93
2023-04-16T06:18:55.931Z,852.40
2023-04-16T06:21:43.375Z,709.17
2023-04-16T06:24:18.086Z,684.33
2023-04-16T06:26:52.029Z,664.00
2023-04-16T06:29:20.399Z,544.47
2023-04-16T06:33:14.475Z,429.03
2023-04-16T06:35:41.857Z,669.60
2023-04-16T06:38:18.514Z,859.20
2023-04-16T06:40:45.669Z,806.53
2023-04-16T06:43:22.543Z,534.43
2023-04-16T06:45:50.479Z,1103.43
2023-04-16T06:48:19.654Z,874.67
2023-04-16T06:50:53.546Z,641.33
2023-04-16T06:53:20.794Z,720.47
2023-04-16T06:55:54.526Z,546.77
2023-04-16T06:58:29.490Z,526.30
2023-04-16T07:00:56.759Z,453.07
2023-04-16T07:03:30.624Z,723.80
2023-04-16T07:05:59.600Z,697.97
2023-04-16T07:08:33.565Z,749.50
2023-04-16T07:11:07.548Z,647.47
2023-04-16T07:13:43.591Z,473.20
2023-04-16T07:16:11.183Z,433.60
2023-04-16T07:18:52.645Z,741.30
2023-04-16T07:21:26.526Z,352.73
2023-04-16T07:24:00.520Z,309.50
2023-04-16T07:26:34.546Z,540.33
2023-04-16T07:29:15.536Z,352.67
2023-04-16T07:32:02.569Z,587.17
2023-04-16T07:34:42.538Z,300.57
2023-04-16T07:37:09.842Z,529.40
2023-04-16T07:39:43.566Z,546.27
2023-04-16T07:42:17.497Z,670.77
2023-04-16T07:44:53.511Z,390.70
2023-04-16T07:47:27.545Z,458.80
2023-04-16T07:50:01.578Z,215.90
2023-04-16T07:52:35.543Z,287.03
2023-04-16T07:55:02.870Z,59.63
2023-04-16T07:57:37.672Z,80.77
2023-04-16T08:00:06.044Z,58.60
2023-04-16T08:02:40.758Z,42.37
2023-04-16T08:05:08.363Z,42.57
2023-04-16T08:07:42.566Z,35.57
2023-04-16T08:10:17.542Z,38.40
2023-04-16T08:12:51.519Z,36.20
2023-04-16T08:15:25.519Z,37.53
2023-04-16T08:17:59.685Z,38.20
2023-04-16T08:20:28.945Z,38.90
2023-04-16T08:23:02.600Z,38.90
2023-04-16T08:25:36.551Z,38.87
2023-04-16T08:28:12.536Z,38.20
2023-04-16T08:30:47.574Z,32.30
2023-04-16T08:33:28.580Z,33.53
2023-04-16T08:35:55.991Z,34.83
2023-04-16T08:38:29.578Z,30.33
2023-04-16T08:41:12.477Z,35.43
2023-04-16T08:43:44.610Z,32.40
2023-04-16T08:46:19.568Z,28.20
2023-04-16T08:48:50.103Z,27.57
2023-04-16T08:51:26.510Z,40.83
2023-04-16T08:54:18.500Z,34.07
2023-04-16T08:56:55.157Z,26.80
2023-04-16T08:59:29.616Z,29.33
2023-04-16T09:01:59.927Z,35.77
2023-04-16T09:04:35.700Z,30.60
2023-04-16T09:07:05.521Z,25.07
2023-04-16T09:09:40.578Z,28.67
2023-04-16T09:12:09.045Z,29.03
2023-04-16T09:14:42.554Z,40.27
2023-04-16T09:17:10.339Z,27.73
2023-04-16T09:19:44.510Z,40.23
2023-04-16T09:22:20.574Z,47.53
2023-04-16T09:24:54.511Z,38.87
2023-04-16T09:27:32.558Z,78.43
2023-04-16T09:30:06.533Z,148.80
2023-04-16T09:32:47.541Z,32.00
2023-04-16T09:35:28.570Z,122.10
2023-04-16T09:38:04.544Z,42.43
2023-04-16T09:40:31.595Z,30.10
2023-04-16T09:43:07.573Z,32.40
2023-04-16T09:45:56.557Z,33.70
2023-04-16T09:48:40.509Z,39.50
2023-04-16T09:51:08.234Z,23.83
2023-04-16T09:53:42.516Z,25.10
2023-04-16T09:56:17.517Z,27.43
2023-04-16T09:58:51.491Z,39.07
2023-04-16T10:01:25.653Z,30.53
2023-04-16T10:04:05.665Z,60.53
2023-04-16T10:06:33.037Z,48.60
2023-04-16T10:09:06.567Z,34.40
2023-04-16T10:11:41.530Z,57.73
2023-04-16T10:14:09.710Z,43.43
2023-04-16T10:16:43.628Z,29.97
2023-04-16T10:19:11.117Z,23.40
2023-04-16T10:21:39.397Z,26.90
2023-04-16T10:24:15.510Z,24.47
2023-04-16T10:26:49.614Z,23.00
2023-04-16T10:29:23.637Z,27.33
2023-04-16T10:32:01.567Z,30.23
2023-04-16T10:34:37.682Z,27.10
2023-04-16T10:37:11.582Z,33.43
2023-04-16T10:39:45.532Z,22.17
2023-04-16T10:42:13.623Z,24.23
2023-04-16T10:44:48.613Z,24.13
2023-04-16T10:47:22.583Z,25.47
2023-04-16T10:49:56.577Z,29.70
2023-04-16T10:52:25.231Z,24.27
2023-04-16T10:55:00.547Z,31.10
2023-04-16T10:57:30.874Z,22.50
2023-04-16T11:00:05.601Z,22.20
2023-04-16T11:02:39.825Z,22.17
2023-04-16T11:05:14.621Z,22.00
2023-04-16T11:07:49.824Z,23.77
2023-04-16T11:10:24.554Z,23.07
2023-04-16T11:12:54.706Z,22.77
2023-04-16T11:15:37.545Z,22.17
2023-04-16T11:18:07.203Z,24.20
2023-04-16T11:20:41.575Z,22.57
2023-04-16T11:23:19.555Z,22.03
2023-04-16T11:25:53.607Z,20.43
2023-04-16T11:28:20.780Z,17.47
2023-04-16T11:30:55.569Z,21.10
2023-04-16T11:33:32.230Z,23.47
2023-04-16T11:36:06.556Z,22.13
2023-04-16T11:38:43.631Z,22.67
2023-04-16T11:41:17.567Z,18.57
2023-04-16T11:43:51.768Z,17.80
2023-04-16T11:46:27.470Z,16.23
2023-04-16T11:49:02.605Z,18.77
2023-04-16T11:51:30.508Z,16.70
2023-04-16T11:54:05.517Z,16.40
2023-04-16T11:56:43.535Z,12.50
2023-04-16T11:59:18.109Z,14.50
2023-04-16T12:01:58.627Z,15.50
2023-04-16T12:04:27.876Z,11.83
2023-04-16T12:07:21.592Z,10.93
2023-04-16T12:09:55.952Z,14.47
2023-04-16T12:12:37.618Z,13.27
2023-04-16T12:15:11.561Z,8.43
2023-04-16T12:17:39.185Z,8.73
2023-04-16T12:20:19.582Z,7.27
2023-04-16T12:22:49.852Z,6.60
2023-04-16T12:25:25.563Z,7.10
2023-04-16T12:27:56.024Z,9.50
2023-04-16T12:30:32.621Z,6.73
2023-04-16T12:33:26.690Z,5.87
2023-04-16T12:36:00.590Z,6.30
2023-04-16T12:38:28.774Z,5.67
2023-04-16T12:41:04.737Z,4.97
2023-04-16T12:43:32.036Z,5.27
2023-04-16T12:46:05.598Z,5.70
2023-04-16T12:48:33.975Z,8.20
2023-04-16T12:51:07.665Z,7.23
2023-04-16T12:53:35.221Z,7.37
2023-04-16T12:56:09.566Z,6.80
2023-04-16T12:58:36.709Z,10.97
2023-04-16T13:01:10.550Z,6.87
2023-04-16T13:03:39.830Z,6.53
2023-04-16T13:06:15.568Z,5.70
2023-04-16T13:08:44.937Z,7.03
2023-04-16T13:11:20.539Z,5.40
2023-04-16T13:13:48.028Z,6.20
2023-04-16T13:16:21.644Z,6.33
2023-04-16T13:18:56.519Z,6.97
2023-04-16T13:21:31.607Z,8.13
2023-04-16T13:23:59.648Z,8.33
2023-04-16T13:26:27.173Z,8.97
2023-04-16T13:29:02.559Z,6.57
2023-04-16T13:31:51.601Z,6.67
2023-04-16T13:34:25.661Z,7.37
2023-04-16T13:36:59.556Z,7.90
2023-04-16T13:39:33.547Z,5.77
2023-04-16T13:42:07.598Z,6.17
2023-04-16T13:44:41.557Z,8.03
2023-04-16T13:47:15.569Z,6.50
2023-04-16T13:49:51.576Z,8.30
2023-04-16T13:52:25.548Z,6.23
2023-04-16T13:54:53.845Z,7.50
2023-04-16T13:57:28.455Z,6.90
2023-04-16T13:59:56.515Z,5.23
2023-04-16T14:02:30.723Z,5.77
2023-04-16T14:05:04.599Z,6.27
2023-04-16T14:07:42.608Z,7.10
2023-04-16T14:10:11.416Z,8.00
2023-04-16T14:12:46.535Z,7.20
2023-04-16T14:15:14.971Z,6.87
2023-04-16T14:17:50.589Z,8.50
2023-04-16T14:20:17.694Z,7.03
2023-04-16T14:22:56.606Z,7.47
2023-04-16T14:25:24.905Z,14.50
2023-04-16T14:27:58.597Z,20.07
2023-04-16T14:30:33.561Z,9.57
2023-04-16T14:33:14.600Z,11.50
2023-04-16T14:35:50.671Z,7.60
2023-04-16T14:38:24.918Z,6.17
2023-04-16T14:40:58.599Z,6.93
2023-04-16T14:43:26.343Z,6.20
2023-04-16T14:45:53.540Z,7.33
2023-04-16T14:48:29.631Z,7.13
2023-04-16T14:50:57.088Z,7.73
2023-04-16T14:53:31.608Z,8.20
2023-04-16T14:55:59.509Z,7.70
2023-04-16T14:58:33.636Z,7.77
2023-04-16T15:01:01.057Z,7.53
2023-04-16T15:03:31.470Z,8.93
2023-04-16T15:06:06.999Z,7.40
2023-04-16T15:08:35.246Z,6.57
2023-04-16T15:11:08.644Z,7.67
2023-04-16T15:13:36.138Z,9.57
2023-04-16T15:16:13.593Z,7.50
2023-04-16T15:18:47.556Z,9.77
2023-04-16T15:21:21.681Z,10.93
2023-04-16T15:23:55.646Z,7.80
2023-04-16T15:26:32.627Z,12.60
2023-04-16T15:29:07.623Z,9.43
2023-04-16T15:31:42.788Z,30.37
2023-04-16T15:34:16.331Z,33.53
2023-04-16T15:36:49.596Z,63.07
2023-04-16T15:39:17.312Z,107.37
2023-04-16T15:42:00.441Z,77.60
2023-04-16T15:44:32.094Z,40.40
2023-04-16T15:47:06.632Z,113.73
2023-04-16T15:49:41.634Z,73.33
2023-04-16T15:52:18.666Z,53.47
2023-04-16T15:54:46.492Z,57.70
2023-04-16T15:57:20.660Z,49.93
2023-04-16T16:00:03.178Z,57.17
2023-04-16T16:02:42.824Z,96.47
2023-04-16T16:05:14.474Z,42.77
2023-04-16T16:07:54.624Z,50.00
2023-04-16T16:10:28.969Z,150.50
2023-04-16T16:13:11.581Z,223.87
2023-04-16T16:15:43.312Z,196.73
2023-04-16T16:18:17.638Z,84.43
2023-04-16T16:20:51.648Z,134.57
2023-04-16T16:23:26.651Z,107.47
2023-04-16T16:25:53.789Z,90.10
2023-04-16T16:28:27.568Z,72.43
2023-04-16T16:30:58.861Z,61.93
2023-04-16T16:33:40.658Z,20.73
2023-04-16T16:36:12.384Z,19.30
2023-04-16T16:38:49.635Z,18.00
2023-04-16T16:41:19.418Z,13.33
2023-04-16T16:43:57.127Z,15.93
2023-04-16T16:46:24.794Z,17.00
2023-04-16T16:48:59.655Z,24.33
2023-04-16T16:51:34.596Z,28.20
2023-04-16T16:54:11.178Z,39.40
2023-04-16T16:56:38.471Z,124.63
2023-04-16T16:59:15.524Z,62.67
2023-04-16T17:01:42.854Z,97.33
2023-04-16T17:04:20.363Z,195.20
2023-04-16T17:06:47.880Z,580.10
2023-04-16T17:09:23.667Z,685.73
2023-04-16T17:12:03.764Z,738.17
2023-04-16T17:14:33.996Z,996.90
2023-04-16T17:17:08.957Z,91.73
2023-04-16T17:19:44.587Z,40.83
2023-04-16T17:22:19.692Z,40.33
2023-04-16T17:24:49.377Z,37.90
2023-04-16T17:27:25.882Z,44.77
2023-04-16T17:29:59.863Z,40.73
2023-04-16T17:32:40.647Z,42.97
2023-04-16T17:35:21.695Z,42.33
2023-04-16T17:37:49.195Z,44.40
2023-04-16T17:40:24.630Z,50.97
2023-04-16T17:42:55.085Z,39.93
2023-04-16T17:45:36.686Z,43.30
2023-04-16T17:48:15.128Z,48.30
2023-04-16T17:50:50.886Z,44.77
2023-04-16T17:53:24.595Z,43.17
2023-04-16T17:55:56.844Z,47.37
2023-04-16T17:58:32.690Z,49.30
2023-04-16T18:01:00.036Z,47.47
2023-04-16T18:03:34.727Z,49.80
2023-04-16T18:06:08.663Z,58.80
2023-04-16T18:08:37.089Z,52.70
2023-04-16T18:11:18.641Z,55.83
2023-04-16T18:13:46.604Z,53.67
2023-04-16T18:16:23.718Z,56.87
2023-04-16T18:18:57.649Z,60.13
2023-04-16T18:21:31.610Z,57.47
2023-04-16T18:24:07.694Z,49.70
2023-04-16T18:26:46.701Z,49.80
2023-04-16T18:29:24.796Z,56.10
2023-04-16T18:31:52.531Z,57.97
2023-04-16T18:34:32.710Z,61.20
2023-04-16T18:37:06.672Z,50.33
2023-04-16T18:39:36.743Z,49.43
2023-04-16T18:42:10.659Z,56.93
2023-04-16T18:44:44.654Z,56.90
2023-04-16T18:47:25.578Z,50.57
2023-04-16T18:49:52.800Z,56.20
2023-04-16T18:52:27.634Z,51.13
2023-04-16T18:54:56.279Z,47.93
2023-04-16T18:57:32.687Z,53.03
2023-04-16T18:59:59.798Z,53.73
2023-04-16T19:02:33.714Z,54.77
2023-04-16T19:05:01.552Z,50.90
2023-04-16T19:07:35.631Z,50.93
2023-04-16T19:10:02.881Z,53.50
2023-04-16T19:12:41.888Z,47.87
2023-04-16T19:15:19.978Z,53.63
2023-04-16T19:17:47.097Z,43.77
2023-04-16T19:20:21.640Z,46.13
2023-04-16T19:22:55.620Z,43.50
2023-04-16T19:25:31.897Z,51.83
2023-04-16T19:28:00.559Z,46.53
2023-04-16T19:30:35.620Z,44.07
2023-04-16T19:33:09.047Z,43.80
2023-04-16T19:35:43.752Z,45.13
2023-04-16T19:38:11.932Z,46.30
2023-04-16T19:40:47.646Z,44.53
2023-04-16T19:43:21.627Z,44.30
2023-04-16T19:46:02.000Z,47.57
2023-04-16T19:48:31.934Z,45.07
2023-04-16T19:51:10.660Z,41.47
2023-04-16T19:53:44.647Z,41.10
2023-04-16T19:56:18.607Z,39.53
2023-04-16T19:58:52.644Z,42.03
2023-04-16T20:01:26.676Z,42.90
2023-04-16T20:04:01.802Z,36.23
2023-04-16T20:06:28.923Z,39.80
2023-04-16T20:08:57.493Z,44.27
2023-04-16T20:11:31.608Z,40.60
2023-04-16T20:14:07.690Z,38.50
2023-04-16T20:16:36.637Z,42.50
2023-04-16T20:19:10.843Z,41.30
2023-04-16T20:21:38.720Z,41.17
2023-04-16T20:24:17.680Z,42.07
2023-04-16T20:26:51.664Z,40.97
2023-04-16T20:29:26.664Z,44.10
2023-04-16T20:31:53.669Z,45.30
2023-04-16T20:34:29.422Z,47.50
2023-04-16T20:36:58.122Z,44.27
2023-04-16T20:39:32.641Z,41.07
2023-04-16T20:42:07.636Z,43.83
2023-04-16T20:44:40.553Z,46.37
2023-04-16T20:47:21.635Z,46.70
2023-04-16T20:49:48.941Z,42.17
2023-04-16T20:52:23.666Z,44.63
2023-04-16T20:54:58.614Z,45.50
2023-04-16T20:57:34.645Z,46.40
2023-04-16T21:00:02.059Z,46.50
2023-04-16T21:02:35.876Z,42.57
2023-04-16T21:05:03.361Z,48.10
2023-04-16T21:07:36.658Z,43.17
2023-04-16T21:10:04.189Z,41.97
2023-04-16T21:12:37.727Z,40.20
2023-04-16T21:15:05.355Z,51.90
2023-04-16T21:17:42.751Z,42.17
2023-04-16T21:20:20.675Z,46.23
2023-04-16T21:22:54.645Z,51.97
2023-04-16T21:25:24.515Z,43.77
2023-04-16T21:27:58.670Z,38.33
2023-04-16T21:30:32.788Z,45.33
2023-04-16T21:33:06.731Z,42.97
2023-04-16T21:35:40.791Z,41.70
2023-04-16T21:38:16.962Z,46.03
2023-04-16T21:41:02.712Z,42.70
2023-04-16T21:43:39.799Z,42.53
2023-04-16T21:46:06.871Z,43.10
2023-04-16T21:48:40.610Z,40.33
2023-04-16T21:51:08.326Z,42.53
2023-04-16T21:53:43.668Z,46.63
2023-04-16T21:56:17.664Z,43.03
2023-04-16T21:58:51.643Z,48.10
2023-04-16T22:01:25.684Z,52.27
2023-04-16T22:03:59.713Z,52.37
2023-04-16T22:06:33.610Z,54.77
2023-04-16T22:09:08.808Z,50.93
2023-04-16T22:11:36.711Z,53.77
2023-04-16T22:14:14.642Z,54.97
2023-04-16T22:16:48.717Z,58.23
2023-04-16T22:19:17.849Z,55.57
2023-04-16T22:21:51.648Z,53.80
2023-04-16T22:24:18.598Z,58.90
2023-04-16T22:26:52.631Z,56.83
2023-04-16T22:29:19.887Z,60.67
2023-04-16T22:31:53.740Z,65.30
2023-04-16T22:34:30.169Z,60.40
2023-04-16T22:37:03.671Z,62.80
2023-04-16T22:39:31.794Z,70.03
2023-04-16T22:42:05.741Z,62.73
2023-04-16T22:44:40.696Z,64.97
2023-04-16T22:47:14.645Z,53.63
2023-04-16T22:49:43.171Z,65.00
2023-04-16T22:52:17.700Z,60.40
2023-04-16T22:54:44.813Z,63.47
2023-04-16T22:57:20.692Z,66.00
2023-04-16T22:59:47.757Z,56.87
2023-04-16T23:02:21.821Z,52.83
2023-04-16T23:04:55.685Z,56.07
2023-04-16T23:07:22.767Z,78.53
2023-04-16T23:09:56.659Z,107.90
2023-04-16T23:12:23.732Z,78.90
2023-04-16T23:14:58.642Z,70.00
2023-04-16T23:17:25.718Z,70.43
2023-04-16T23:19:59.675Z,77.33
2023-04-16T23:22:33.689Z,142.70
2023-04-16T23:25:08.692Z,68.63
2023-04-16T23:27:43.642Z,63.77
2023-04-16T23:30:17.672Z,67.73
2023-04-16T23:32:50.835Z,82.10
2023-04-16T23:35:31.714Z,79.73
2023-04-16T23:37:58.786Z,125.33
2023-04-16T23:40:32.970Z,146.57
2023-04-16T23:43:00.190Z,289.27
2023-04-16T23:45:33.750Z,529.73
2023-04-16T23:48:00.814Z,254.87
2023-04-16T23:50:34.949Z,93.93
2023-04-16T23:53:12.044Z,111.07
2023-04-16T23:55:49.952Z,119.10
2023-04-16T23:58:16.935Z,311.97
